sensor_id;sensor_type;location;lat;lon;timestamp;temperature;humidity
22562;DHT22;11447;50.562;8.504;2023-06-26T00:00:53;23.00;58.90
22562;DHT22;11447;50.562;8.504;2023-06-26T00:03:20;22.90;59.10
22562;DHT22;11447;50.562;8.504;2023-06-26T00:05:46;22.90;59.40
22562;DHT22;11447;50.562;8.504;2023-06-26T00:08:13;22.80;59.70
22562;DHT22;11447;50.562;8.504;2023-06-26T00:10:42;22.80;59.60
22562;DHT22;11447;50.562;8.504;2023-06-26T00:13:09;22.80;59.60
22562;DHT22;11447;50.562;8.504;2023-06-26T00:15:38;22.70;59.60
22562;DHT22;11447;50.562;8.504;2023-06-26T00:18:05;22.70;60.10
22562;DHT22;11447;50.562;8.504;2023-06-26T00:20:32;22.60;60.30
22562;DHT22;11447;50.562;8.504;2023-06-26T00:23:00;22.60;60.20
22562;DHT22;11447;50.562;8.504;2023-06-26T00:25:27;22.60;60.10
22562;DHT22;11447;50.562;8.504;2023-06-26T00:27:56;22.50;59.70
22562;DHT22;11447;50.562;8.504;2023-06-26T00:30:25;22.60;59.30
22562;DHT22;11447;50.562;8.504;2023-06-26T00:32:52;22.50;59.70
22562;DHT22;11447;50.562;8.504;2023-06-26T00:35:18;22.40;60.00
22562;DHT22;11447;50.562;8.504;2023-06-26T00:37:45;22.30;59.70
22562;DHT22;11447;50.562;8.504;2023-06-26T00:40:12;22.30;59.80
22562;DHT22;11447;50.562;8.504;2023-06-26T00:42:39;22.20;60.10
22562;DHT22;11447;50.562;8.504;2023-06-26T00:45:08;22.20;60.10
22562;DHT22;11447;50.562;8.504;2023-06-26T00:47:34;22.20;60.60
22562;DHT22;11447;50.562;8.504;2023-06-26T00:50:01;22.00;60.60
22562;DHT22;11447;50.562;8.504;2023-06-26T00:52:28;22.20;61.00
22562;DHT22;11447;50.562;8.504;2023-06-26T00:54:55;22.10;61.30
22562;DHT22;11447;50.562;8.504;2023-06-26T00:57:24;22.00;61.60
22562;DHT22;11447;50.562;8.504;2023-06-26T00:59:51;22.00;61.70
22562;DHT22;11447;50.562;8.504;2023-06-26T01:02:18;22.00;61.90
22562;DHT22;11447;50.562;8.504;2023-06-26T01:04:49;21.90;62.10
22562;DHT22;11447;50.562;8.504;2023-06-26T01:07:16;21.90;61.90
22562;DHT22;11447;50.562;8.504;2023-06-26T01:09:48;21.90;62.40
22562;DHT22;11447;50.562;8.504;2023-06-26T01:12:17;21.70;62.40
22562;DHT22;11447;50.562;8.504;2023-06-26T01:14:46;21.60;62.20
22562;DHT22;11447;50.562;8.504;2023-06-26T01:17:15;21.60;62.50
22562;DHT22;11447;50.562;8.504;2023-06-26T01:19:42;21.60;62.30
22562;DHT22;11447;50.562;8.504;2023-06-26T01:24:47;21.60;62.40
22562;DHT22;11447;50.562;8.504;2023-06-26T01:27:20;21.50;62.10
22562;DHT22;11447;50.562;8.504;2023-06-26T01:29:49;21.40;62.70
22562;DHT22;11447;50.562;8.504;2023-06-26T01:32:18;21.40;62.90
22562;DHT22;11447;50.562;8.504;2023-06-26T01:34:45;21.30;63.10
22562;DHT22;11447;50.562;8.504;2023-06-26T01:37:12;21.30;62.60
22562;DHT22;11447;50.562;8.504;2023-06-26T01:39:38;21.30;62.80
22562;DHT22;11447;50.562;8.504;2023-06-26T01:42:05;21.30;63.60
22562;DHT22;11447;50.562;8.504;2023-06-26T01:44:33;21.30;63.80
22562;DHT22;11447;50.562;8.504;2023-06-26T01:47:04;21.20;63.70
22562;DHT22;11447;50.562;8.504;2023-06-26T01:49:46;21.20;63.90
22562;DHT22;11447;50.562;8.504;2023-06-26T01:54:43;21.20;64.40
22562;DHT22;11447;50.562;8.504;2023-06-26T01:57:12;21.20;64.50
22562;DHT22;11447;50.562;8.504;2023-06-26T01:59:39;21.00;64.80
22562;DHT22;11447;50.562;8.504;2023-06-26T02:02:07;21.00;64.90
22562;DHT22;11447;50.562;8.504;2023-06-26T02:04:34;21.00;65.00
22562;DHT22;11447;50.562;8.504;2023-06-26T02:07:03;21.00;65.00
22562;DHT22;11447;50.562;8.504;2023-06-26T02:09:30;20.90;65.00
22562;DHT22;11447;50.562;8.504;2023-06-26T02:11:59;20.90;65.20
22562;DHT22;11447;50.562;8.504;2023-06-26T02:14:25;20.90;65.00
22562;DHT22;11447;50.562;8.504;2023-06-26T02:16:52;20.90;64.80
22562;DHT22;11447;50.562;8.504;2023-06-26T02:19:19;20.80;65.40
22562;DHT22;11447;50.562;8.504;2023-06-26T02:21:48;20.70;65.90
22562;DHT22;11447;50.562;8.504;2023-06-26T02:24:15;20.70;66.00
22562;DHT22;11447;50.562;8.504;2023-06-26T02:26:42;20.70;65.90
22562;DHT22;11447;50.562;8.504;2023-06-26T02:29:10;20.70;65.80
22562;DHT22;11447;50.562;8.504;2023-06-26T02:31:36;20.70;65.80
22562;DHT22;11447;50.562;8.504;2023-06-26T02:34:06;20.60;66.20
22562;DHT22;11447;50.562;8.504;2023-06-26T02:36:33;20.60;66.30
22562;DHT22;11447;50.562;8.504;2023-06-26T02:39:00;20.50;66.30
22562;DHT22;11447;50.562;8.504;2023-06-26T02:41:27;20.70;66.40
22562;DHT22;11447;50.562;8.504;2023-06-26T02:43:56;20.60;66.30
22562;DHT22;11447;50.562;8.504;2023-06-26T02:46:22;20.50;66.40
22562;DHT22;11447;50.562;8.504;2023-06-26T02:48:51;20.50;66.70
22562;DHT22;11447;50.562;8.504;2023-06-26T02:51:18;20.50;66.50
22562;DHT22;11447;50.562;8.504;2023-06-26T02:53:45;20.50;66.80
22562;DHT22;11447;50.562;8.504;2023-06-26T02:56:11;20.40;66.90
22562;DHT22;11447;50.562;8.504;2023-06-26T02:58:40;20.30;66.60
22562;DHT22;11447;50.562;8.504;2023-06-26T03:01:09;20.40;66.10
22562;DHT22;11447;50.562;8.504;2023-06-26T03:03:36;20.40;65.80
22562;DHT22;11447;50.562;8.504;2023-06-26T03:06:07;20.50;65.90
22562;DHT22;11447;50.562;8.504;2023-06-26T03:08:37;20.30;66.10
22562;DHT22;11447;50.562;8.504;2023-06-26T03:11:04;20.30;66.40
22562;DHT22;11447;50.562;8.504;2023-06-26T03:13:31;20.20;66.40
22562;DHT22;11447;50.562;8.504;2023-06-26T03:15:58;20.00;67.00
22562;DHT22;11447;50.562;8.504;2023-06-26T03:18:24;20.10;66.80
22562;DHT22;11447;50.562;8.504;2023-06-26T03:20:51;20.00;67.20
22562;DHT22;11447;50.562;8.504;2023-06-26T03:23:20;20.00;67.00
22562;DHT22;11447;50.562;8.504;2023-06-26T03:25:47;20.10;67.30
22562;DHT22;11447;50.562;8.504;2023-06-26T03:28:14;19.90;67.50
22562;DHT22;11447;50.562;8.504;2023-06-26T03:30:41;19.80;67.60
22562;DHT22;11447;50.562;8.504;2023-06-26T03:33:08;19.80;67.70
22562;DHT22;11447;50.562;8.504;2023-06-26T03:35:34;19.80;67.50
22562;DHT22;11447;50.562;8.504;2023-06-26T03:38:03;19.90;67.50
22562;DHT22;11447;50.562;8.504;2023-06-26T03:40:33;19.90;67.30
22562;DHT22;11447;50.562;8.504;2023-06-26T03:42:59;19.90;67.50
22562;DHT22;11447;50.562;8.504;2023-06-26T03:45:29;20.00;67.60
22562;DHT22;11447;50.562;8.504;2023-06-26T03:47:55;19.80;67.80
22562;DHT22;11447;50.562;8.504;2023-06-26T03:50:22;19.80;68.40
22562;DHT22;11447;50.562;8.504;2023-06-26T03:52:49;19.80;68.20
22562;DHT22;11447;50.562;8.504;2023-06-26T03:55:17;19.90;67.80
22562;DHT22;11447;50.562;8.504;2023-06-26T03:57:47;19.80;67.60
22562;DHT22;11447;50.562;8.504;2023-06-26T04:00:14;19.80;67.40
22562;DHT22;11447;50.562;8.504;2023-06-26T04:02:40;19.80;67.40
22562;DHT22;11447;50.562;8.504;2023-06-26T04:05:07;19.80;67.20
22562;DHT22;11447;50.562;8.504;2023-06-26T04:07:34;19.80;67.20
22562;DHT22;11447;50.562;8.504;2023-06-26T04:10:02;19.80;67.30
22562;DHT22;11447;50.562;8.504;2023-06-26T04:12:28;19.80;67.30
22562;DHT22;11447;50.562;8.504;2023-06-26T04:14:55;19.80;66.90
22562;DHT22;11447;50.562;8.504;2023-06-26T04:17:22;19.90;66.70
22562;DHT22;11447;50.562;8.504;2023-06-26T04:19:48;20.00;66.10
22562;DHT22;11447;50.562;8.504;2023-06-26T04:22:15;19.90;66.90
22562;DHT22;11447;50.562;8.504;2023-06-26T04:24:44;19.90;67.20
22562;DHT22;11447;50.562;8.504;2023-06-26T04:27:12;19.80;67.30
22562;DHT22;11447;50.562;8.504;2023-06-26T04:29:40;19.80;67.50
22562;DHT22;11447;50.562;8.504;2023-06-26T04:32:07;19.70;67.40
22562;DHT22;11447;50.562;8.504;2023-06-26T04:34:33;19.80;67.30
22562;DHT22;11447;50.562;8.504;2023-06-26T04:37:02;19.80;67.60
22562;DHT22;11447;50.562;8.504;2023-06-26T04:39:30;19.80;67.60
22562;DHT22;11447;50.562;8.504;2023-06-26T04:41:57;19.80;67.80
22562;DHT22;11447;50.562;8.504;2023-06-26T04:44:25;19.80;67.50
22562;DHT22;11447;50.562;8.504;2023-06-26T04:46:51;19.90;67.30
22562;DHT22;11447;50.562;8.504;2023-06-26T04:49:18;19.90;67.20
22562;DHT22;11447;50.562;8.504;2023-06-26T04:51:46;20.00;67.20
22562;DHT22;11447;50.562;8.504;2023-06-26T04:54:13;20.20;67.10
22562;DHT22;11447;50.562;8.504;2023-06-26T04:56:39;20.30;66.70
22562;DHT22;11447;50.562;8.504;2023-06-26T04:59:06;20.40;66.00
22562;DHT22;11447;50.562;8.504;2023-06-26T05:01:33;20.50;66.40
22562;DHT22;11447;50.562;8.504;2023-06-26T05:04:06;20.50;67.10
22562;DHT22;11447;50.562;8.504;2023-06-26T05:06:32;20.40;67.10
22562;DHT22;11447;50.562;8.504;2023-06-26T05:08:59;20.50;66.90
22562;DHT22;11447;50.562;8.504;2023-06-26T05:11:25;20.60;66.80
22562;DHT22;11447;50.562;8.504;2023-06-26T05:13:52;20.80;66.20
22562;DHT22;11447;50.562;8.504;2023-06-26T05:16:21;20.80;66.20
22562;DHT22;11447;50.562;8.504;2023-06-26T05:18:48;21.00;66.00
22562;DHT22;11447;50.562;8.504;2023-06-26T05:21:15;21.10;65.80
22562;DHT22;11447;50.562;8.504;2023-06-26T05:23:44;21.20;65.20
22562;DHT22;11447;50.562;8.504;2023-06-26T05:26:11;21.30;64.90
22562;DHT22;11447;50.562;8.504;2023-06-26T05:28:39;21.40;64.20
22562;DHT22;11447;50.562;8.504;2023-06-26T05:31:09;21.50;63.90
22562;DHT22;11447;50.562;8.504;2023-06-26T05:33:35;21.70;63.20
22562;DHT22;11447;50.562;8.504;2023-06-26T05:36:06;21.80;63.00
22562;DHT22;11447;50.562;8.504;2023-06-26T05:38:36;21.90;62.70
22562;DHT22;11447;50.562;8.504;2023-06-26T05:41:05;21.90;62.40
22562;DHT22;11447;50.562;8.504;2023-06-26T05:43:34;22.10;62.20
22562;DHT22;11447;50.562;8.504;2023-06-26T05:46:01;22.80;60.80
22562;DHT22;11447;50.562;8.504;2023-06-26T05:48:29;24.90;55.80
22562;DHT22;11447;50.562;8.504;2023-06-26T05:50:56;28.80;47.20
22562;DHT22;11447;50.562;8.504;2023-06-26T05:53:23;31.20;41.80
22562;DHT22;11447;50.562;8.504;2023-06-26T05:55:50;32.60;39.50
22562;DHT22;11447;50.562;8.504;2023-06-26T05:58:19;33.90;37.90
22562;DHT22;11447;50.562;8.504;2023-06-26T06:00:46;34.90;35.70
22562;DHT22;11447;50.562;8.504;2023-06-26T06:03:13;35.60;34.20
22562;DHT22;11447;50.562;8.504;2023-06-26T06:47:36;32.50;38.20
22562;DHT22;11447;50.562;8.504;2023-06-26T06:50:03;32.20;38.10
22562;DHT22;11447;50.562;8.504;2023-06-26T06:52:38;31.70;39.20
22562;DHT22;11447;50.562;8.504;2023-06-26T06:55:05;30.90;40.10
22562;DHT22;11447;50.562;8.504;2023-06-26T06:57:32;30.20;41.30
22562;DHT22;11447;50.562;8.504;2023-06-26T07:00:10;29.60;42.60
22562;DHT22;11447;50.562;8.504;2023-06-26T07:02:38;29.70;42.80
22562;DHT22;11447;50.562;8.504;2023-06-26T07:05:08;30.20;42.50
22562;DHT22;11447;50.562;8.504;2023-06-26T07:07:35;30.20;42.50
22562;DHT22;11447;50.562;8.504;2023-06-26T07:10:09;30.20;42.00
22562;DHT22;11447;50.562;8.504;2023-06-26T07:12:36;30.30;41.40
22562;DHT22;11447;50.562;8.504;2023-06-26T07:15:06;30.30;41.40
22562;DHT22;11447;50.562;8.504;2023-06-26T07:17:33;30.30;41.30
22562;DHT22;11447;50.562;8.504;2023-06-26T07:20:02;30.40;41.50
22562;DHT22;11447;50.562;8.504;2023-06-26T07:22:34;30.50;41.30
22562;DHT22;11447;50.562;8.504;2023-06-26T07:25:01;30.30;41.60
22562;DHT22;11447;50.562;8.504;2023-06-26T07:27:28;30.30;41.70
22562;DHT22;11447;50.562;8.504;2023-06-26T07:29:55;30.40;42.10
22562;DHT22;11447;50.562;8.504;2023-06-26T07:32:22;30.50;41.70
22562;DHT22;11447;50.562;8.504;2023-06-26T07:34:51;30.60;41.70
22562;DHT22;11447;50.562;8.504;2023-06-26T07:37:17;30.60;41.80
22562;DHT22;11447;50.562;8.504;2023-06-26T07:39:44;30.60;41.90
22562;DHT22;11447;50.562;8.504;2023-06-26T07:42:11;30.60;41.90
22562;DHT22;11447;50.562;8.504;2023-06-26T07:44:41;30.60;41.90
22562;DHT22;11447;50.562;8.504;2023-06-26T07:47:08;30.60;42.00
22562;DHT22;11447;50.562;8.504;2023-06-26T07:49:34;30.80;41.70
22562;DHT22;11447;50.562;8.504;2023-06-26T07:52:02;30.70;41.60
22562;DHT22;11447;50.562;8.504;2023-06-26T07:54:29;30.50;41.20
22562;DHT22;11447;50.562;8.504;2023-06-26T07:56:57;30.40;42.00
22562;DHT22;11447;50.562;8.504;2023-06-26T07:59:27;30.40;41.40
22562;DHT22;11447;50.562;8.504;2023-06-26T08:01:54;30.50;41.70
22562;DHT22;11447;50.562;8.504;2023-06-26T08:04:27;30.60;41.70
22562;DHT22;11447;50.562;8.504;2023-06-26T08:06:55;30.80;40.80
22562;DHT22;11447;50.562;8.504;2023-06-26T08:09:24;30.60;41.10
22562;DHT22;11447;50.562;8.504;2023-06-26T08:11:51;30.40;41.30
22562;DHT22;11447;50.562;8.504;2023-06-26T08:14:18;30.40;41.30
22562;DHT22;11447;50.562;8.504;2023-06-26T08:16:45;30.20;41.70
22562;DHT22;11447;50.562;8.504;2023-06-26T08:19:12;30.30;42.40
22562;DHT22;11447;50.562;8.504;2023-06-26T08:21:40;30.50;41.70
22562;DHT22;11447;50.562;8.504;2023-06-26T08:24:06;30.80;41.50
22562;DHT22;11447;50.562;8.504;2023-06-26T08:26:33;30.90;41.30
22562;DHT22;11447;50.562;8.504;2023-06-26T08:29:02;30.90;41.00
22562;DHT22;11447;50.562;8.504;2023-06-26T08:31:38;30.90;41.40
22562;DHT22;11447;50.562;8.504;2023-06-26T08:34:05;30.90;41.70
22562;DHT22;11447;50.562;8.504;2023-06-26T08:36:32;30.90;41.70
22562;DHT22;11447;50.562;8.504;2023-06-26T08:38:59;30.70;41.30
22562;DHT22;11447;50.562;8.504;2023-06-26T08:41:25;30.80;41.60
22562;DHT22;11447;50.562;8.504;2023-06-26T08:43:52;30.70;41.70
22562;DHT22;11447;50.562;8.504;2023-06-26T08:46:19;30.80;41.70
22562;DHT22;11447;50.562;8.504;2023-06-26T08:48:53;30.80;41.60
22562;DHT22;11447;50.562;8.504;2023-06-26T08:51:23;30.80;41.80
22562;DHT22;11447;50.562;8.504;2023-06-26T08:53:58;30.80;42.20
22562;DHT22;11447;50.562;8.504;2023-06-26T08:56:37;30.90;42.00
22562;DHT22;11447;50.562;8.504;2023-06-26T08:59:05;30.90;41.80
22562;DHT22;11447;50.562;8.504;2023-06-26T09:01:33;30.90;41.70
22562;DHT22;11447;50.562;8.504;2023-06-26T09:04:00;30.90;41.80
22562;DHT22;11447;50.562;8.504;2023-06-26T09:06:26;30.80;42.00
22562;DHT22;11447;50.562;8.504;2023-06-26T09:08:53;30.70;42.30
22562;DHT22;11447;50.562;8.504;2023-06-26T09:11:22;30.60;42.10
22562;DHT22;11447;50.562;8.504;2023-06-26T09:13:49;30.50;42.30
22562;DHT22;11447;50.562;8.504;2023-06-26T09:16:16;30.50;42.20
22562;DHT22;11447;50.562;8.504;2023-06-26T09:18:45;30.40;42.50
22562;DHT22;11447;50.562;8.504;2023-06-26T09:21:11;30.50;41.90
22562;DHT22;11447;50.562;8.504;2023-06-26T09:23:39;30.50;41.70
22562;DHT22;11447;50.562;8.504;2023-06-26T09:26:06;30.50;41.80
22562;DHT22;11447;50.562;8.504;2023-06-26T09:28:33;30.50;41.80
22562;DHT22;11447;50.562;8.504;2023-06-26T09:31:00;30.40;41.70
22562;DHT22;11447;50.562;8.504;2023-06-26T09:33:27;30.30;41.30
22562;DHT22;11447;50.562;8.504;2023-06-26T09:35:54;30.30;41.60
22562;DHT22;11447;50.562;8.504;2023-06-26T09:38:20;30.30;41.20
22562;DHT22;11447;50.562;8.504;2023-06-26T09:40:47;30.50;41.40
22562;DHT22;11447;50.562;8.504;2023-06-26T09:43:14;30.30;41.40
22562;DHT22;11447;50.562;8.504;2023-06-26T09:45:41;30.10;41.60
22562;DHT22;11447;50.562;8.504;2023-06-26T09:48:08;30.10;41.50
22562;DHT22;11447;50.562;8.504;2023-06-26T09:50:41;30.20;41.70
22562;DHT22;11447;50.562;8.504;2023-06-26T09:53:27;30.30;41.70
22562;DHT22;11447;50.562;8.504;2023-06-26T09:55:55;30.10;41.20
22562;DHT22;11447;50.562;8.504;2023-06-26T09:58:22;30.20;41.50
22562;DHT22;11447;50.562;8.504;2023-06-26T10:00:50;30.10;40.90
22562;DHT22;11447;50.562;8.504;2023-06-26T10:03:20;29.80;41.00
22562;DHT22;11447;50.562;8.504;2023-06-26T10:05:47;29.60;41.50
22562;DHT22;11447;50.562;8.504;2023-06-26T10:08:14;29.60;41.70
22562;DHT22;11447;50.562;8.504;2023-06-26T10:10:41;29.60;42.10
22562;DHT22;11447;50.562;8.504;2023-06-26T10:13:16;29.80;42.40
22562;DHT22;11447;50.562;8.504;2023-06-26T10:15:50;29.70;42.70
22562;DHT22;11447;50.562;8.504;2023-06-26T10:18:17;29.60;43.10
22562;DHT22;11447;50.562;8.504;2023-06-26T10:20:48;29.80;42.90
22562;DHT22;11447;50.562;8.504;2023-06-26T10:23:19;29.90;42.50
22562;DHT22;11447;50.562;8.504;2023-06-26T10:25:49;29.80;42.70
22562;DHT22;11447;50.562;8.504;2023-06-26T10:28:17;29.70;43.40
22562;DHT22;11447;50.562;8.504;2023-06-26T10:30:44;29.60;43.60
22562;DHT22;11447;50.562;8.504;2023-06-26T10:33:12;29.70;43.60
22562;DHT22;11447;50.562;8.504;2023-06-26T10:35:43;29.80;43.60
22562;DHT22;11447;50.562;8.504;2023-06-26T10:38:14;29.80;43.50
22562;DHT22;11447;50.562;8.504;2023-06-26T10:40:44;29.90;43.50
22562;DHT22;11447;50.562;8.504;2023-06-26T10:43:15;29.90;43.00
22562;DHT22;11447;50.562;8.504;2023-06-26T10:45:46;30.00;42.00
22562;DHT22;11447;50.562;8.504;2023-06-26T10:48:18;30.00;41.40
22562;DHT22;11447;50.562;8.504;2023-06-26T10:50:48;30.00;41.10
22562;DHT22;11447;50.562;8.504;2023-06-26T10:55:56;29.90;41.50
22562;DHT22;11447;50.562;8.504;2023-06-26T11:01:13;30.00;41.40
22562;DHT22;11447;50.562;8.504;2023-06-26T11:03:41;30.00;40.80
22562;DHT22;11447;50.562;8.504;2023-06-26T11:06:12;29.90;40.90
22562;DHT22;11447;50.562;8.504;2023-06-26T11:11:12;29.80;41.30
22562;DHT22;11447;50.562;8.504;2023-06-26T11:13:40;29.70;41.40
22562;DHT22;11447;50.562;8.504;2023-06-26T11:16:07;29.70;41.40
22562;DHT22;11447;50.562;8.504;2023-06-26T11:18:34;29.80;41.60
22562;DHT22;11447;50.562;8.504;2023-06-26T11:21:06;29.90;41.00
22562;DHT22;11447;50.562;8.504;2023-06-26T11:23:34;29.80;40.80
22562;DHT22;11447;50.562;8.504;2023-06-26T11:28:45;29.70;40.80
22562;DHT22;11447;50.562;8.504;2023-06-26T11:31:23;29.70;40.50
22562;DHT22;11447;50.562;8.504;2023-06-26T11:33:53;29.60;40.20
22562;DHT22;11447;50.562;8.504;2023-06-26T11:36:22;29.60;39.80
22562;DHT22;11447;50.562;8.504;2023-06-26T11:38:52;29.50;40.40
22562;DHT22;11447;50.562;8.504;2023-06-26T11:41:19;29.60;40.70
22562;DHT22;11447;50.562;8.504;2023-06-26T11:43:45;29.70;40.80
22562;DHT22;11447;50.562;8.504;2023-06-26T11:46:12;29.70;41.20
22562;DHT22;11447;50.562;8.504;2023-06-26T11:48:41;29.60;41.20
22562;DHT22;11447;50.562;8.504;2023-06-26T11:51:08;29.70;41.10
22562;DHT22;11447;50.562;8.504;2023-06-26T11:53:41;29.90;41.20
22562;DHT22;11447;50.562;8.504;2023-06-26T11:56:11;29.90;41.00
22562;DHT22;11447;50.562;8.504;2023-06-26T12:01:31;30.10;40.80
22562;DHT22;11447;50.562;8.504;2023-06-26T12:03:59;30.30;40.40
22562;DHT22;11447;50.562;8.504;2023-06-26T12:06:31;30.00;39.90
22562;DHT22;11447;50.562;8.504;2023-06-26T12:08:58;30.00;39.70
22562;DHT22;11447;50.562;8.504;2023-06-26T12:11:25;30.10;39.90
22562;DHT22;11447;50.562;8.504;2023-06-26T12:13:56;30.00;39.70
22562;DHT22;11447;50.562;8.504;2023-06-26T12:16:23;29.60;39.60
22562;DHT22;11447;50.562;8.504;2023-06-26T12:18:50;29.70;39.20
22562;DHT22;11447;50.562;8.504;2023-06-26T12:24:02;29.60;39.80
22562;DHT22;11447;50.562;8.504;2023-06-26T12:26:29;29.70;39.70
22562;DHT22;11447;50.562;8.504;2023-06-26T12:31:31;29.60;39.70
22562;DHT22;11447;50.562;8.504;2023-06-26T12:33:58;29.60;39.70
22562;DHT22;11447;50.562;8.504;2023-06-26T12:36:25;29.60;38.90
22562;DHT22;11447;50.562;8.504;2023-06-26T12:38:52;29.80;39.00
22562;DHT22;11447;50.562;8.504;2023-06-26T12:41:23;29.80;38.90
22562;DHT22;11447;50.562;8.504;2023-06-26T12:43:55;29.70;39.20
22562;DHT22;11447;50.562;8.504;2023-06-26T12:46:32;29.70;39.30
22562;DHT22;11447;50.562;8.504;2023-06-26T12:49:02;29.80;39.50
22562;DHT22;11447;50.562;8.504;2023-06-26T12:51:37;29.80;39.70
22562;DHT22;11447;50.562;8.504;2023-06-26T12:54:04;29.80;39.30
22562;DHT22;11447;50.562;8.504;2023-06-26T12:56:33;29.80;38.90
22562;DHT22;11447;50.562;8.504;2023-06-26T12:59:02;30.00;38.90
22562;DHT22;11447;50.562;8.504;2023-06-26T13:01:29;30.00;38.50
22562;DHT22;11447;50.562;8.504;2023-06-26T13:03:55;29.90;38.20
22562;DHT22;11447;50.562;8.504;2023-06-26T13:06:24;29.60;38.20
22562;DHT22;11447;50.562;8.504;2023-06-26T13:08:51;29.60;38.10
22562;DHT22;11447;50.562;8.504;2023-06-26T13:11:20;29.60;37.50
22562;DHT22;11447;50.562;8.504;2023-06-26T13:13:47;29.70;37.20
22562;DHT22;11447;50.562;8.504;2023-06-26T13:16:34;29.70;36.60
22562;DHT22;11447;50.562;8.504;2023-06-26T13:19:03;29.80;36.80
22562;DHT22;11447;50.562;8.504;2023-06-26T13:21:29;29.60;36.10
22562;DHT22;11447;50.562;8.504;2023-06-26T13:23:56;29.50;35.70
22562;DHT22;11447;50.562;8.504;2023-06-26T13:26:23;29.50;35.40
22562;DHT22;11447;50.562;8.504;2023-06-26T13:29:03;29.40;35.90
22562;DHT22;11447;50.562;8.504;2023-06-26T13:31:29;29.50;36.00
22562;DHT22;11447;50.562;8.504;2023-06-26T13:33:59;29.50;35.30
22562;DHT22;11447;50.562;8.504;2023-06-26T13:36:30;29.40;35.80
22562;DHT22;11447;50.562;8.504;2023-06-26T13:38:56;29.50;35.40
22562;DHT22;11447;50.562;8.504;2023-06-26T13:41:25;29.30;35.40
22562;DHT22;11447;50.562;8.504;2023-06-26T13:43:52;29.40;35.10
22562;DHT22;11447;50.562;8.504;2023-06-26T13:46:28;29.40;34.60
22562;DHT22;11447;50.562;8.504;2023-06-26T13:48:55;29.30;34.70
22562;DHT22;11447;50.562;8.504;2023-06-26T13:51:24;29.30;34.10
22562;DHT22;11447;50.562;8.504;2023-06-26T13:53:53;29.20;34.70
22562;DHT22;11447;50.562;8.504;2023-06-26T13:56:26;29.20;35.10
22562;DHT22;11447;50.562;8.504;2023-06-26T13:58:53;29.20;35.60
22562;DHT22;11447;50.562;8.504;2023-06-26T14:01:22;29.30;35.80
22562;DHT22;11447;50.562;8.504;2023-06-26T14:03:50;29.50;35.30
22562;DHT22;11447;50.562;8.504;2023-06-26T14:06:19;29.40;34.10
22562;DHT22;11447;50.562;8.504;2023-06-26T14:08:48;29.30;33.60
22562;DHT22;11447;50.562;8.504;2023-06-26T14:11:17;29.30;33.70
22562;DHT22;11447;50.562;8.504;2023-06-26T14:13:43;29.30;34.00
22562;DHT22;11447;50.562;8.504;2023-06-26T14:16:10;29.30;34.50
22562;DHT22;11447;50.562;8.504;2023-06-26T14:18:37;29.30;34.40
22562;DHT22;11447;50.562;8.504;2023-06-26T14:21:04;29.20;35.00
22562;DHT22;11447;50.562;8.504;2023-06-26T14:23:31;29.10;35.30
22562;DHT22;11447;50.562;8.504;2023-06-26T14:25:57;29.20;35.30
22562;DHT22;11447;50.562;8.504;2023-06-26T14:28:24;29.10;34.90
22562;DHT22;11447;50.562;8.504;2023-06-26T14:30:53;29.10;35.00
22562;DHT22;11447;50.562;8.504;2023-06-26T14:33:20;29.10;35.20
22562;DHT22;11447;50.562;8.504;2023-06-26T14:35:48;29.20;35.40
22562;DHT22;11447;50.562;8.504;2023-06-26T14:38:15;29.00;35.50
22562;DHT22;11447;50.562;8.504;2023-06-26T14:40:44;29.00;35.50
22562;DHT22;11447;50.562;8.504;2023-06-26T14:43:11;29.10;34.90
22562;DHT22;11447;50.562;8.504;2023-06-26T14:45:39;29.20;34.80
22562;DHT22;11447;50.562;8.504;2023-06-26T14:48:08;29.20;34.70
22562;DHT22;11447;50.562;8.504;2023-06-26T14:50:34;29.30;34.90
22562;DHT22;11447;50.562;8.504;2023-06-26T14:53:01;29.20;34.50
22562;DHT22;11447;50.562;8.504;2023-06-26T14:55:31;29.10;34.10
22562;DHT22;11447;50.562;8.504;2023-06-26T14:57:58;29.00;33.70
22562;DHT22;11447;50.562;8.504;2023-06-26T15:00:24;29.00;34.30
22562;DHT22;11447;50.562;8.504;2023-06-26T15:02:52;29.00;34.70
22562;DHT22;11447;50.562;8.504;2023-06-26T15:05:27;29.00;35.00
22562;DHT22;11447;50.562;8.504;2023-06-26T15:07:54;29.00;35.00
22562;DHT22;11447;50.562;8.504;2023-06-26T15:10:21;29.00;34.40
22562;DHT22;11447;50.562;8.504;2023-06-26T15:12:48;28.90;34.50
22562;DHT22;11447;50.562;8.504;2023-06-26T15:15:14;29.00;34.50
22562;DHT22;11447;50.562;8.504;2023-06-26T15:17:41;29.00;34.30
22562;DHT22;11447;50.562;8.504;2023-06-26T15:20:08;29.00;34.20
22562;DHT22;11447;50.562;8.504;2023-06-26T15:22:35;28.90;33.90
22562;DHT22;11447;50.562;8.504;2023-06-26T15:25:01;28.90;34.10
22562;DHT22;11447;50.562;8.504;2023-06-26T15:27:28;29.00;34.10
22562;DHT22;11447;50.562;8.504;2023-06-26T15:29:59;28.80;34.50
22562;DHT22;11447;50.562;8.504;2023-06-26T15:32:26;28.70;34.90
22562;DHT22;11447;50.562;8.504;2023-06-26T15:34:53;28.70;35.10
22562;DHT22;11447;50.562;8.504;2023-06-26T15:37:22;28.70;35.20
22562;DHT22;11447;50.562;8.504;2023-06-26T15:39:48;28.80;35.20
22562;DHT22;11447;50.562;8.504;2023-06-26T15:42:15;28.90;35.30
22562;DHT22;11447;50.562;8.504;2023-06-26T15:44:41;28.90;34.90
22562;DHT22;11447;50.562;8.504;2023-06-26T15:47:08;28.60;34.90
22562;DHT22;11447;50.562;8.504;2023-06-26T15:49:35;28.70;34.70
22562;DHT22;11447;50.562;8.504;2023-06-26T15:52:02;28.60;34.90
22562;DHT22;11447;50.562;8.504;2023-06-26T15:54:28;28.60;35.20
22562;DHT22;11447;50.562;8.504;2023-06-26T15:56:55;28.60;35.40
22562;DHT22;11447;50.562;8.504;2023-06-26T15:59:26;28.60;35.70
22562;DHT22;11447;50.562;8.504;2023-06-26T16:01:53;28.50;35.80
22562;DHT22;11447;50.562;8.504;2023-06-26T16:04:22;28.60;35.80
22562;DHT22;11447;50.562;8.504;2023-06-26T16:06:49;28.60;35.90
22562;DHT22;11447;50.562;8.504;2023-06-26T16:09:16;28.50;36.20
22562;DHT22;11447;50.562;8.504;2023-06-26T16:11:42;28.40;36.40
22562;DHT22;11447;50.562;8.504;2023-06-26T16:14:09;28.40;36.50
22562;DHT22;11447;50.562;8.504;2023-06-26T16:16:35;28.30;36.60
22562;DHT22;11447;50.562;8.504;2023-06-26T16:19:02;28.10;36.70
22562;DHT22;11447;50.562;8.504;2023-06-26T16:21:29;28.10;36.50
22562;DHT22;11447;50.562;8.504;2023-06-26T16:23:56;28.00;36.80
22562;DHT22;11447;50.562;8.504;2023-06-26T16:26:22;28.00;36.70
22562;DHT22;11447;50.562;8.504;2023-06-26T16:28:49;27.90;36.90
22562;DHT22;11447;50.562;8.504;2023-06-26T16:31:16;27.80;36.90
22562;DHT22;11447;50.562;8.504;2023-06-26T16:33:43;27.80;36.90
22562;DHT22;11447;50.562;8.504;2023-06-26T16:36:10;27.80;36.80
22562;DHT22;11447;50.562;8.504;2023-06-26T16:38:37;27.80;36.60
22562;DHT22;11447;50.562;8.504;2023-06-26T16:41:04;27.60;37.00